Overview Statistics Trail Chart Weather Telemetry Raw packets
 

This is the latest recevied telemetry packets stored in our database for station/object YO2LOJ-1. If no packets are shown the sender has not sent any telemetry packets the latest 10 day(s).

Telemetry packets is used to share measurements like repeteater parameters, battery voltage, radiation readings (or any other measurements).

<< 1 2 3 4 >>
Time Press* Temp.in* Hum* QNH* Temp.out*
1788634840 1010.3 hPa 34.8 C deg 0 % 1021.5 hPa 0 C deg
1788633025 1009.6 hPa 35.2 C deg 0 % 1020.9 hPa 0 C deg
1788631213 1008.9 hPa 36 C deg 0 % 1020.1 hPa 0 C deg
1788629398 1008.5 hPa 35.8 C deg 0 % 1019.6 hPa 0 C deg
1788627582 1008.2 hPa 37 C deg 0 % 1019.3 hPa 0 C deg
1788625766 1007.9 hPa 37.7 C deg 0 % 1019 hPa 0 C deg
1788623951 1007.8 hPa 38.6 C deg 0 % 1018.8 hPa 0 C deg
1788622140 1007.3 hPa 38.9 C deg 0 % 1018.4 hPa 0 C deg
1788620325 1006.8 hPa 39.9 C deg 0 % 1017.8 hPa 0 C deg
1788618508 1006.7 hPa 40.7 C deg 0 % 1017.7 hPa 0 C deg
1788616693 1006.1 hPa 41.8 C deg 0 % 1017.1 hPa 0 C deg
1788614878 1005.7 hPa 42.4 C deg 0 % 1016.6 hPa 0 C deg
1788613066 1005 hPa 44.2 C deg 0 % 1015.9 hPa 0 C deg
1788611251 1005.3 hPa 43.9 C deg 0 % 1016.2 hPa 0 C deg
1788609435 1005.7 hPa 43.3 C deg 0 % 1016.6 hPa 0 C deg
1788607620 1005.9 hPa 43.2 C deg 0 % 1016.8 hPa 0 C deg
1788605805 1006.3 hPa 42.6 C deg 0 % 1017.2 hPa 0 C deg
1788603994 1006.5 hPa 41.6 C deg 0 % 1017.5 hPa 0 C deg
1788602179 1006.6 hPa 41.5 C deg 0 % 1017.6 hPa 0 C deg
1788600361 1006.6 hPa 40 C deg 0 % 1017.6 hPa 0 C deg
1788598545 1006.7 hPa 38.4 C deg 0 % 1017.8 hPa 0 C deg
1788596730 1006.7 hPa 37 C deg 0 % 1017.8 hPa 0 C deg
1788594917 1006.9 hPa 35.6 C deg 0 % 1018 hPa 0 C deg
1788593102 1006.8 hPa 34 C deg 0 % 1018 hPa 0 C deg
1788591283 1006.6 hPa 32.6 C deg 0 % 1017.9 hPa 0 C deg
*Used Equation Coefficients:
Press: 0, 1, 0
Temp.in: 0, 1, 0
Hum: 0, 1, 0
QNH: 0, 1, 0
Temp.out: 0, 1, 0

  • The parameter names for the analog channels will be Value1, Value2, Value3 (up to Value5) if station has not sent a PARAM-packet that specifies the parameter names for each analog channel.
  • Each analog value is a decimal number between 000 and 255 (according to APRS specifications). The receiver use the telemetry equation coefficientsto to restore the original sensor values. If no EQNS-packet with equation coefficients is sent we will show the values as is (this corresponds to the equation coefficients a=0, b=1 and c=0).
    The sent equation coefficients is used in the equation: a * value2 + b * value + c.
  • The units for the analog values will not be shown if station has not sent a UNIT-packet specifying what unit's to use.
  • The parameter names for the digital bits will be Bit1, Bit2, Bit3 (up to Bit8) if station has not sent a PARAM-packet that specifies the parameter names for each digital bit.
  • All bit labels will be named "On" if station has not sent a UNIT-packet that specifies the label of each bit.
  • A bit is considered to be On when the bit is 1 if station has not sent a BITS-packet that specifies another "Bit sense" (a BITS-packet specify the state of the bits that match the BIT labels)